sensor_id;sensor_type;location;lat;lon;timestamp;P1;durP1;ratioP1;P2;durP2;ratioP2
12792;SDS011;6460;42.684;23.260;2022-10-18T00:01:25;13.97;;;9.63;;
12792;SDS011;6460;42.684;23.260;2022-10-18T00:03:52;13.20;;;9.27;;
12792;SDS011;6460;42.684;23.260;2022-10-18T00:06:19;14.00;;;10.20;;
12792;SDS011;6460;42.684;23.260;2022-10-18T00:08:48;11.50;;;9.47;;
12792;SDS011;6460;42.684;23.260;2022-10-18T00:11:15;11.77;;;9.30;;
12792;SDS011;6460;42.684;23.260;2022-10-18T00:13:42;12.40;;;9.47;;
12792;SDS011;6460;42.684;23.260;2022-10-18T00:16:10;12.57;;;9.27;;
12792;SDS011;6460;42.684;23.260;2022-10-18T00:18:39;12.30;;;9.27;;
12792;SDS011;6460;42.684;23.260;2022-10-18T00:21:08;11.23;;;9.37;;
12792;SDS011;6460;42.684;23.260;2022-10-18T00:23:37;11.60;;;8.27;;
12792;SDS011;6460;42.684;23.260;2022-10-18T00:26:07;10.43;;;7.60;;
12792;SDS011;6460;42.684;23.260;2022-10-18T00:28:36;9.40;;;7.00;;
12792;SDS011;6460;42.684;23.260;2022-10-18T00:31:08;9.07;;;7.17;;
12792;SDS011;6460;42.684;23.260;2022-10-18T00:33:36;12.03;;;8.03;;
12792;SDS011;6460;42.684;23.260;2022-10-18T00:36:04;12.17;;;8.40;;
12792;SDS011;6460;42.684;23.260;2022-10-18T00:38:32;14.30;;;9.27;;
12792;SDS011;6460;42.684;23.260;2022-10-18T00:41:00;11.47;;;9.03;;
12792;SDS011;6460;42.684;23.260;2022-10-18T00:43:29;12.63;;;9.10;;
12792;SDS011;6460;42.684;23.260;2022-10-18T00:45:56;11.97;;;9.03;;
12792;SDS011;6460;42.684;23.260;2022-10-18T00:48:23;12.83;;;9.23;;
12792;SDS011;6460;42.684;23.260;2022-10-18T00:50:51;12.93;;;9.50;;
12792;SDS011;6460;42.684;23.260;2022-10-18T00:53:19;12.20;;;9.07;;
12792;SDS011;6460;42.684;23.260;2022-10-18T00:55:48;9.77;;;7.20;;
12792;SDS011;6460;42.684;23.260;2022-10-18T00:58:16;11.77;;;8.33;;
12792;SDS011;6460;42.684;23.260;2022-10-18T01:00:46;13.87;;;9.07;;
12792;SDS011;6460;42.684;23.260;2022-10-18T01:03:13;14.00;;;8.30;;
12792;SDS011;6460;42.684;23.260;2022-10-18T01:05:41;12.97;;;8.53;;
12792;SDS011;6460;42.684;23.260;2022-10-18T01:08:14;10.57;;;8.43;;
12792;SDS011;6460;42.684;23.260;2022-10-18T01:11:10;10.30;;;8.03;;
12792;SDS011;6460;42.684;23.260;2022-10-18T01:13:55;12.73;;;7.80;;
12792;SDS011;6460;42.684;23.260;2022-10-18T01:16:31;11.20;;;7.83;;
12792;SDS011;6460;42.684;23.260;2022-10-18T01:19:05;12.57;;;8.20;;
12792;SDS011;6460;42.684;23.260;2022-10-18T01:21:47;12.27;;;8.40;;
12792;SDS011;6460;42.684;23.260;2022-10-18T01:24:29;9.73;;;7.50;;
12792;SDS011;6460;42.684;23.260;2022-10-18T01:27:26;11.80;;;7.73;;
12792;SDS011;6460;42.684;23.260;2022-10-18T01:33:18;11.07;;;7.47;;
12792;SDS011;6460;42.684;23.260;2022-10-18T01:35:52;12.87;;;7.13;;
12792;SDS011;6460;42.684;23.260;2022-10-18T01:38:23;10.17;;;6.93;;
12792;SDS011;6460;42.684;23.260;2022-10-18T01:40:53;10.17;;;6.80;;
12792;SDS011;6460;42.684;23.260;2022-10-18T01:43:22;10.03;;;7.37;;
12792;SDS011;6460;42.684;23.260;2022-10-18T01:45:51;9.90;;;7.73;;
12792;SDS011;6460;42.684;23.260;2022-10-18T01:48:21;10.13;;;7.70;;
12792;SDS011;6460;42.684;23.260;2022-10-18T01:50:48;9.47;;;8.07;;
12792;SDS011;6460;42.684;23.260;2022-10-18T01:53:21;9.23;;;7.63;;
12792;SDS011;6460;42.684;23.260;2022-10-18T01:55:53;10.03;;;7.73;;
12792;SDS011;6460;42.684;23.260;2022-10-18T01:58:30;10.20;;;7.23;;
12792;SDS011;6460;42.684;23.260;2022-10-18T02:01:07;10.00;;;7.13;;
12792;SDS011;6460;42.684;23.260;2022-10-18T02:03:40;9.83;;;7.47;;
12792;SDS011;6460;42.684;23.260;2022-10-18T02:06:14;11.17;;;7.57;;
12792;SDS011;6460;42.684;23.260;2022-10-18T02:08:45;8.57;;;7.67;;
12792;SDS011;6460;42.684;23.260;2022-10-18T02:11:18;11.30;;;7.77;;
12792;SDS011;6460;42.684;23.260;2022-10-18T02:13:46;11.53;;;7.47;;
12792;SDS011;6460;42.684;23.260;2022-10-18T02:16:20;9.57;;;7.03;;
12792;SDS011;6460;42.684;23.260;2022-10-18T02:18:54;9.20;;;7.50;;
12792;SDS011;6460;42.684;23.260;2022-10-18T02:21:26;10.00;;;7.90;;
12792;SDS011;6460;42.684;23.260;2022-10-18T02:23:55;10.30;;;7.30;;
12792;SDS011;6460;42.684;23.260;2022-10-18T02:26:24;10.77;;;7.37;;
12792;SDS011;6460;42.684;23.260;2022-10-18T02:28:52;12.27;;;7.93;;
12792;SDS011;6460;42.684;23.260;2022-10-18T02:31:23;10.03;;;7.83;;
12792;SDS011;6460;42.684;23.260;2022-10-18T02:33:53;10.43;;;8.10;;
12792;SDS011;6460;42.684;23.260;2022-10-18T02:36:24;11.63;;;8.00;;
12792;SDS011;6460;42.684;23.260;2022-10-18T02:38:58;11.20;;;8.27;;
12792;SDS011;6460;42.684;23.260;2022-10-18T02:41:29;9.97;;;7.90;;
12792;SDS011;6460;42.684;23.260;2022-10-18T02:43:57;12.90;;;8.90;;
12792;SDS011;6460;42.684;23.260;2022-10-18T02:46:26;12.63;;;8.90;;
12792;SDS011;6460;42.684;23.260;2022-10-18T02:48:53;10.63;;;8.23;;
12792;SDS011;6460;42.684;23.260;2022-10-18T02:51:20;12.97;;;8.70;;
12792;SDS011;6460;42.684;23.260;2022-10-18T02:53:47;10.63;;;8.27;;
12792;SDS011;6460;42.684;23.260;2022-10-18T02:56:14;9.57;;;7.63;;
12792;SDS011;6460;42.684;23.260;2022-10-18T02:58:41;10.57;;;8.03;;
12792;SDS011;6460;42.684;23.260;2022-10-18T03:01:09;10.40;;;8.77;;
12792;SDS011;6460;42.684;23.260;2022-10-18T03:03:37;11.63;;;8.13;;
12792;SDS011;6460;42.684;23.260;2022-10-18T03:06:05;11.27;;;8.03;;
12792;SDS011;6460;42.684;23.260;2022-10-18T03:08:32;11.37;;;7.67;;
12792;SDS011;6460;42.684;23.260;2022-10-18T03:10:59;9.13;;;7.57;;
12792;SDS011;6460;42.684;23.260;2022-10-18T03:13:26;10.73;;;8.27;;
12792;SDS011;6460;42.684;23.260;2022-10-18T03:15:53;10.97;;;7.83;;
12792;SDS011;6460;42.684;23.260;2022-10-18T03:18:20;10.53;;;8.73;;
12792;SDS011;6460;42.684;23.260;2022-10-18T03:20:49;13.23;;;8.87;;
12792;SDS011;6460;42.684;23.260;2022-10-18T03:23:16;12.87;;;7.97;;
12792;SDS011;6460;42.684;23.260;2022-10-18T03:25:44;10.97;;;8.30;;
12792;SDS011;6460;42.684;23.260;2022-10-18T03:28:11;14.57;;;9.67;;
12792;SDS011;6460;42.684;23.260;2022-10-18T03:30:38;15.37;;;9.83;;
12792;SDS011;6460;42.684;23.260;2022-10-18T03:33:06;12.27;;;9.43;;
12792;SDS011;6460;42.684;23.260;2022-10-18T03:35:33;11.67;;;9.13;;
12792;SDS011;6460;42.684;23.260;2022-10-18T03:38:02;13.03;;;9.57;;
12792;SDS011;6460;42.684;23.260;2022-10-18T03:40:29;14.23;;;9.40;;
12792;SDS011;6460;42.684;23.260;2022-10-18T03:42:56;12.47;;;9.37;;
12792;SDS011;6460;42.684;23.260;2022-10-18T03:45:23;11.13;;;8.80;;
12792;SDS011;6460;42.684;23.260;2022-10-18T03:47:51;14.23;;;9.57;;
12792;SDS011;6460;42.684;23.260;2022-10-18T03:50:18;15.30;;;9.57;;
12792;SDS011;6460;42.684;23.260;2022-10-18T03:52:45;12.97;;;9.40;;
12792;SDS011;6460;42.684;23.260;2022-10-18T03:55:14;12.30;;;9.57;;
12792;SDS011;6460;42.684;23.260;2022-10-18T03:57:41;15.60;;;9.40;;
12792;SDS011;6460;42.684;23.260;2022-10-18T04:00:09;15.03;;;10.40;;
12792;SDS011;6460;42.684;23.260;2022-10-18T04:02:38;15.53;;;10.93;;
12792;SDS011;6460;42.684;23.260;2022-10-18T04:05:05;16.97;;;10.40;;
12792;SDS011;6460;42.684;23.260;2022-10-18T04:07:33;16.67;;;9.93;;
12792;SDS011;6460;42.684;23.260;2022-10-18T04:10:01;12.50;;;9.73;;
12792;SDS011;6460;42.684;23.260;2022-10-18T04:12:30;14.10;;;9.93;;
12792;SDS011;6460;42.684;23.260;2022-10-18T04:14:57;15.87;;;11.10;;
12792;SDS011;6460;42.684;23.260;2022-10-18T04:17:24;16.17;;;10.63;;
12792;SDS011;6460;42.684;23.260;2022-10-18T04:19:51;15.07;;;11.40;;
12792;SDS011;6460;42.684;23.260;2022-10-18T04:22:18;15.40;;;11.33;;
12792;SDS011;6460;42.684;23.260;2022-10-18T04:24:46;15.77;;;10.47;;
12792;SDS011;6460;42.684;23.260;2022-10-18T04:27:13;13.20;;;9.87;;
12792;SDS011;6460;42.684;23.260;2022-10-18T04:29:42;15.00;;;10.67;;
12792;SDS011;6460;42.684;23.260;2022-10-18T04:32:08;13.77;;;9.70;;
12792;SDS011;6460;42.684;23.260;2022-10-18T04:34:35;16.20;;;10.87;;
12792;SDS011;6460;42.684;23.260;2022-10-18T04:37:02;18.90;;;10.80;;
12792;SDS011;6460;42.684;23.260;2022-10-18T04:39:30;16.17;;;10.23;;
12792;SDS011;6460;42.684;23.260;2022-10-18T04:41:57;13.70;;;9.50;;
12792;SDS011;6460;42.684;23.260;2022-10-18T04:44:24;16.27;;;9.53;;
12792;SDS011;6460;42.684;23.260;2022-10-18T04:46:53;18.30;;;10.30;;
12792;SDS011;6460;42.684;23.260;2022-10-18T04:49:20;20.90;;;10.43;;
12792;SDS011;6460;42.684;23.260;2022-10-18T04:51:47;14.70;;;10.40;;
12792;SDS011;6460;42.684;23.260;2022-10-18T04:54:15;20.00;;;11.63;;
12792;SDS011;6460;42.684;23.260;2022-10-18T04:56:42;17.63;;;13.43;;
12792;SDS011;6460;42.684;23.260;2022-10-18T04:59:10;20.03;;;13.63;;
12792;SDS011;6460;42.684;23.260;2022-10-18T05:01:37;20.73;;;15.17;;
12792;SDS011;6460;42.684;23.260;2022-10-18T05:04:05;18.53;;;13.40;;
12792;SDS011;6460;42.684;23.260;2022-10-18T05:06:33;18.77;;;14.27;;
12792;SDS011;6460;42.684;23.260;2022-10-18T05:09:00;26.57;;;16.30;;
12792;SDS011;6460;42.684;23.260;2022-10-18T05:11:27;24.40;;;16.23;;
12792;SDS011;6460;42.684;23.260;2022-10-18T05:13:55;26.97;;;14.73;;
12792;SDS011;6460;42.684;23.260;2022-10-18T05:16:22;32.73;;;16.07;;
12792;SDS011;6460;42.684;23.260;2022-10-18T05:18:49;28.07;;;17.20;;
12792;SDS011;6460;42.684;23.260;2022-10-18T05:21:18;38.20;;;16.03;;
12792;SDS011;6460;42.684;23.260;2022-10-18T05:23:45;27.30;;;15.60;;
12792;SDS011;6460;42.684;23.260;2022-10-18T05:26:12;30.20;;;16.27;;
12792;SDS011;6460;42.684;23.260;2022-10-18T05:28:40;28.73;;;15.93;;
12792;SDS011;6460;42.684;23.260;2022-10-18T05:31:07;28.37;;;15.73;;
12792;SDS011;6460;42.684;23.260;2022-10-18T05:33:36;24.83;;;16.03;;
12792;SDS011;6460;42.684;23.260;2022-10-18T05:36:04;27.23;;;16.07;;
12792;SDS011;6460;42.684;23.260;2022-10-18T05:38:33;31.27;;;18.33;;
12792;SDS011;6460;42.684;23.260;2022-10-18T05:41:03;28.37;;;18.50;;
12792;SDS011;6460;42.684;23.260;2022-10-18T05:43:31;31.63;;;19.43;;
12792;SDS011;6460;42.684;23.260;2022-10-18T05:45:58;27.00;;;16.90;;
12792;SDS011;6460;42.684;23.260;2022-10-18T06:35:00;35.87;;;27.27;;
12792;SDS011;6460;42.684;23.260;2022-10-18T06:55:35;23.57;;;17.67;;
12792;SDS011;6460;42.684;23.260;2022-10-18T09:21:10;21.43;;;15.13;;
12792;SDS011;6460;42.684;23.260;2022-10-18T09:23:45;25.17;;;15.03;;
12792;SDS011;6460;42.684;23.260;2022-10-18T09:26:14;20.70;;;14.10;;
12792;SDS011;6460;42.684;23.260;2022-10-18T09:28:47;17.80;;;13.27;;
12792;SDS011;6460;42.684;23.260;2022-10-18T09:31:27;18.50;;;12.90;;
12792;SDS011;6460;42.684;23.260;2022-10-18T09:34:07;17.30;;;13.10;;
12792;SDS011;6460;42.684;23.260;2022-10-18T09:36:41;18.93;;;13.37;;
12792;SDS011;6460;42.684;23.260;2022-10-18T09:39:11;24.00;;;13.87;;
12792;SDS011;6460;42.684;23.260;2022-10-18T09:41:42;17.23;;;12.80;;
12792;SDS011;6460;42.684;23.260;2022-10-18T09:44:14;20.47;;;14.60;;
12792;SDS011;6460;42.684;23.260;2022-10-18T09:46:47;17.80;;;13.57;;
12792;SDS011;6460;42.684;23.260;2022-10-18T09:49:18;18.77;;;13.83;;
12792;SDS011;6460;42.684;23.260;2022-10-18T09:51:51;17.90;;;12.83;;
12792;SDS011;6460;42.684;23.260;2022-10-18T09:54:21;20.27;;;13.17;;
12792;SDS011;6460;42.684;23.260;2022-10-18T09:56:53;18.63;;;12.77;;
12792;SDS011;6460;42.684;23.260;2022-10-18T09:59:31;24.60;;;11.60;;
12792;SDS011;6460;42.684;23.260;2022-10-18T10:02:02;13.70;;;11.23;;
12792;SDS011;6460;42.684;23.260;2022-10-18T10:04:30;14.03;;;10.00;;
12792;SDS011;6460;42.684;23.260;2022-10-18T10:07:00;12.87;;;10.40;;
12792;SDS011;6460;42.684;23.260;2022-10-18T10:09:43;13.40;;;10.10;;
12792;SDS011;6460;42.684;23.260;2022-10-18T10:12:25;13.27;;;9.53;;
12792;SDS011;6460;42.684;23.260;2022-10-18T10:15:05;17.13;;;9.00;;
12792;SDS011;6460;42.684;23.260;2022-10-18T10:17:35;15.37;;;9.43;;
12792;SDS011;6460;42.684;23.260;2022-10-18T10:20:03;10.67;;;9.17;;
12792;SDS011;6460;42.684;23.260;2022-10-18T10:22:41;10.57;;;8.57;;
12792;SDS011;6460;42.684;23.260;2022-10-18T10:25:18;12.43;;;9.03;;
12792;SDS011;6460;42.684;23.260;2022-10-18T10:27:48;16.00;;;9.13;;
12792;SDS011;6460;42.684;23.260;2022-10-18T10:30:23;14.13;;;9.40;;
12792;SDS011;6460;42.684;23.260;2022-10-18T10:32:52;12.30;;;8.63;;
12792;SDS011;6460;42.684;23.260;2022-10-18T10:35:28;12.37;;;8.43;;
12792;SDS011;6460;42.684;23.260;2022-10-18T10:37:58;15.27;;;9.40;;
12792;SDS011;6460;42.684;23.260;2022-10-18T10:40:26;40.57;;;36.20;;
12792;SDS011;6460;42.684;23.260;2022-10-18T10:43:05;12.03;;;8.53;;
12792;SDS011;6460;42.684;23.260;2022-10-18T10:45:40;10.73;;;7.00;;
12792;SDS011;6460;42.684;23.260;2022-10-18T10:48:20;12.03;;;8.03;;
12792;SDS011;6460;42.684;23.260;2022-10-18T10:50:50;12.40;;;7.50;;
12792;SDS011;6460;42.684;23.260;2022-10-18T10:56:17;9.07;;;7.47;;
12792;SDS011;6460;42.684;23.260;2022-10-18T10:58:48;11.27;;;7.40;;
12792;SDS011;6460;42.684;23.260;2022-10-18T11:01:19;11.93;;;7.17;;
12792;SDS011;6460;42.684;23.260;2022-10-18T11:03:52;9.43;;;7.43;;
12792;SDS011;6460;42.684;23.260;2022-10-18T11:09:31;9.53;;;6.53;;
12792;SDS011;6460;42.684;23.260;2022-10-18T11:15:02;10.87;;;5.83;;
12792;SDS011;6460;42.684;23.260;2022-10-18T11:17:38;10.10;;;6.00;;
12792;SDS011;6460;42.684;23.260;2022-10-18T11:20:15;6.53;;;5.67;;
12792;SDS011;6460;42.684;23.260;2022-10-18T11:22:52;10.13;;;5.97;;
12792;SDS011;6460;42.684;23.260;2022-10-18T11:25:45;12.63;;;6.33;;
12792;SDS011;6460;42.684;23.260;2022-10-18T11:28:27;8.60;;;6.20;;
12792;SDS011;6460;42.684;23.260;2022-10-18T11:31:10;8.10;;;5.93;;
12792;SDS011;6460;42.684;23.260;2022-10-18T11:33:46;8.03;;;5.40;;
12792;SDS011;6460;42.684;23.260;2022-10-18T11:36:26;10.03;;;5.80;;
12792;SDS011;6460;42.684;23.260;2022-10-18T11:38:59;6.00;;;5.27;;
12792;SDS011;6460;42.684;23.260;2022-10-18T11:41:36;7.47;;;5.57;;
12792;SDS011;6460;42.684;23.260;2022-10-18T11:44:09;10.13;;;6.00;;
12792;SDS011;6460;42.684;23.260;2022-10-18T11:46:46;8.27;;;5.97;;
12792;SDS011;6460;42.684;23.260;2022-10-18T11:49:32;8.77;;;5.43;;
12792;SDS011;6460;42.684;23.260;2022-10-18T11:52:16;10.43;;;5.40;;
12792;SDS011;6460;42.684;23.260;2022-10-18T11:57:48;6.77;;;5.10;;
12792;SDS011;6460;42.684;23.260;2022-10-18T12:00:27;7.07;;;4.87;;
12792;SDS011;6460;42.684;23.260;2022-10-18T12:03:18;9.60;;;5.10;;
12792;SDS011;6460;42.684;23.260;2022-10-18T12:06:03;4.63;;;4.20;;
12792;SDS011;6460;42.684;23.260;2022-10-18T12:08:32;12.63;;;5.00;;
12792;SDS011;6460;42.684;23.260;2022-10-18T12:11:05;6.47;;;3.80;;
12792;SDS011;6460;42.684;23.260;2022-10-18T12:13:39;4.63;;;3.90;;
12792;SDS011;6460;42.684;23.260;2022-10-18T12:16:11;5.33;;;3.87;;
12792;SDS011;6460;42.684;23.260;2022-10-18T12:18:46;5.53;;;3.70;;
12792;SDS011;6460;42.684;23.260;2022-10-18T12:21:17;4.30;;;2.90;;
12792;SDS011;6460;42.684;23.260;2022-10-18T12:23:48;3.93;;;3.30;;
12792;SDS011;6460;42.684;23.260;2022-10-18T12:26:19;5.33;;;3.60;;
12792;SDS011;6460;42.684;23.260;2022-10-18T12:28:50;6.03;;;3.93;;
12792;SDS011;6460;42.684;23.260;2022-10-18T12:31:25;3.83;;;3.40;;
12792;SDS011;6460;42.684;23.260;2022-10-18T12:33:59;4.03;;;3.10;;
12792;SDS011;6460;42.684;23.260;2022-10-18T12:36:39;4.87;;;3.53;;
12792;SDS011;6460;42.684;23.260;2022-10-18T12:39:20;6.47;;;3.20;;
12792;SDS011;6460;42.684;23.260;2022-10-18T12:41:52;7.40;;;3.10;;
12792;SDS011;6460;42.684;23.260;2022-10-18T12:44:23;3.77;;;2.67;;
12792;SDS011;6460;42.684;23.260;2022-10-18T12:46:56;6.97;;;2.50;;
12792;SDS011;6460;42.684;23.260;2022-10-18T12:49:26;2.83;;;2.03;;
12792;SDS011;6460;42.684;23.260;2022-10-18T12:51:55;3.63;;;2.37;;
12792;SDS011;6460;42.684;23.260;2022-10-18T12:54:25;5.10;;;2.60;;
12792;SDS011;6460;42.684;23.260;2022-10-18T12:56:55;2.90;;;1.87;;
12792;SDS011;6460;42.684;23.260;2022-10-18T12:59:40;3.00;;;2.20;;
12792;SDS011;6460;42.684;23.260;2022-10-18T13:02:07;20.03;;;3.17;;
12792;SDS011;6460;42.684;23.260;2022-10-18T13:04:43;8.70;;;3.17;;
12792;SDS011;6460;42.684;23.260;2022-10-18T13:07:15;9.17;;;3.37;;
12792;SDS011;6460;42.684;23.260;2022-10-18T13:12:52;4.87;;;2.40;;
12792;SDS011;6460;42.684;23.260;2022-10-18T13:15:35;8.60;;;2.83;;
12792;SDS011;6460;42.684;23.260;2022-10-18T13:18:09;7.43;;;5.93;;
12792;SDS011;6460;42.684;23.260;2022-10-18T13:23:38;8.53;;;3.27;;
12792;SDS011;6460;42.684;23.260;2022-10-18T13:26:18;5.83;;;2.57;;
12792;SDS011;6460;42.684;23.260;2022-10-18T13:28:54;4.17;;;2.43;;
12792;SDS011;6460;42.684;23.260;2022-10-18T13:31:29;7.63;;;2.37;;
12792;SDS011;6460;42.684;23.260;2022-10-18T13:34:22;2.87;;;2.57;;
12792;SDS011;6460;42.684;23.260;2022-10-18T13:36:56;17.60;;;11.57;;
12792;SDS011;6460;42.684;23.260;2022-10-18T13:39:25;14.53;;;8.77;;
12792;SDS011;6460;42.684;23.260;2022-10-18T13:44:45;6.40;;;2.70;;
12792;SDS011;6460;42.684;23.260;2022-10-18T13:47:15;3.10;;;2.30;;
12792;SDS011;6460;42.684;23.260;2022-10-18T13:56:01;2.67;;;2.10;;
12792;SDS011;6460;42.684;23.260;2022-10-18T13:58:48;2.63;;;2.37;;
12792;SDS011;6460;42.684;23.260;2022-10-18T14:01:31;2.73;;;1.80;;
12792;SDS011;6460;42.684;23.260;2022-10-18T14:07:10;8.33;;;2.23;;
12792;SDS011;6460;42.684;23.260;2022-10-18T14:09:43;5.27;;;1.97;;
12792;SDS011;6460;42.684;23.260;2022-10-18T14:12:16;4.67;;;2.20;;
12792;SDS011;6460;42.684;23.260;2022-10-18T14:14:53;4.20;;;2.13;;
12792;SDS011;6460;42.684;23.260;2022-10-18T14:17:26;4.37;;;2.27;;
12792;SDS011;6460;42.684;23.260;2022-10-18T14:20:02;3.43;;;2.43;;
12792;SDS011;6460;42.684;23.260;2022-10-18T14:22:40;12.17;;;3.20;;
12792;SDS011;6460;42.684;23.260;2022-10-18T14:25:19;2.90;;;2.40;;
12792;SDS011;6460;42.684;23.260;2022-10-18T14:27:48;4.57;;;2.83;;
12792;SDS011;6460;42.684;23.260;2022-10-18T14:30:29;9.63;;;2.83;;
12792;SDS011;6460;42.684;23.260;2022-10-18T14:32:56;13.07;;;2.97;;
12792;SDS011;6460;42.684;23.260;2022-10-18T14:35:26;14.20;;;3.30;;
12792;SDS011;6460;42.684;23.260;2022-10-18T14:37:56;5.30;;;2.40;;
12792;SDS011;6460;42.684;23.260;2022-10-18T14:40:25;6.13;;;2.60;;
12792;SDS011;6460;42.684;23.260;2022-10-18T14:43:02;6.27;;;2.60;;
12792;SDS011;6460;42.684;23.260;2022-10-18T14:45:31;2.50;;;2.30;;
12792;SDS011;6460;42.684;23.260;2022-10-18T14:48:05;4.10;;;2.10;;
12792;SDS011;6460;42.684;23.260;2022-10-18T14:50:42;2.40;;;1.90;;
12792;SDS011;6460;42.684;23.260;2022-10-18T14:53:14;3.57;;;2.20;;
12792;SDS011;6460;42.684;23.260;2022-10-18T14:55:51;8.33;;;3.20;;
12792;SDS011;6460;42.684;23.260;2022-10-18T14:58:21;7.63;;;3.40;;
12792;SDS011;6460;42.684;23.260;2022-10-18T15:00:49;5.40;;;3.43;;
12792;SDS011;6460;42.684;23.260;2022-10-18T15:03:18;7.33;;;3.80;;
12792;SDS011;6460;42.684;23.260;2022-10-18T15:08:35;7.43;;;3.93;;
12792;SDS011;6460;42.684;23.260;2022-10-18T15:11:05;6.83;;;4.77;;
12792;SDS011;6460;42.684;23.260;2022-10-18T15:13:34;4.53;;;3.00;;
12792;SDS011;6460;42.684;23.260;2022-10-18T15:16:10;7.33;;;3.20;;
12792;SDS011;6460;42.684;23.260;2022-10-18T15:18:42;4.10;;;2.87;;
12792;SDS011;6460;42.684;23.260;2022-10-18T15:21:20;5.27;;;3.07;;
12792;SDS011;6460;42.684;23.260;2022-10-18T15:23:50;7.73;;;4.17;;
12792;SDS011;6460;42.684;23.260;2022-10-18T15:26:20;7.03;;;4.00;;
12792;SDS011;6460;42.684;23.260;2022-10-18T15:28:51;8.30;;;4.50;;
12792;SDS011;6460;42.684;23.260;2022-10-18T15:31:23;7.83;;;4.47;;
12792;SDS011;6460;42.684;23.260;2022-10-18T15:34:05;9.23;;;5.23;;
12792;SDS011;6460;42.684;23.260;2022-10-18T15:36:38;11.37;;;4.80;;
12792;SDS011;6460;42.684;23.260;2022-10-18T15:39:06;12.20;;;6.07;;
12792;SDS011;6460;42.684;23.260;2022-10-18T15:41:42;16.90;;;8.27;;
12792;SDS011;6460;42.684;23.260;2022-10-18T15:44:23;26.20;;;12.50;;
12792;SDS011;6460;42.684;23.260;2022-10-18T15:46:53;16.13;;;8.40;;
12792;SDS011;6460;42.684;23.260;2022-10-18T15:52:31;18.60;;;14.73;;
12792;SDS011;6460;42.684;23.260;2022-10-18T15:55:00;19.43;;;10.90;;
12792;SDS011;6460;42.684;23.260;2022-10-18T15:57:47;17.37;;;8.67;;
12792;SDS011;6460;42.684;23.260;2022-10-18T16:00:16;14.93;;;8.40;;
12792;SDS011;6460;42.684;23.260;2022-10-18T16:02:45;18.97;;;8.90;;
12792;SDS011;6460;42.684;23.260;2022-10-18T16:05:13;25.87;;;15.80;;
12792;SDS011;6460;42.684;23.260;2022-10-18T16:07:43;26.43;;;14.43;;
12792;SDS011;6460;42.684;23.260;2022-10-18T16:10:11;32.90;;;16.77;;
12792;SDS011;6460;42.684;23.260;2022-10-18T16:12:39;34.07;;;22.23;;
12792;SDS011;6460;42.684;23.260;2022-10-18T16:15:06;37.67;;;24.33;;
12792;SDS011;6460;42.684;23.260;2022-10-18T16:17:34;40.73;;;25.17;;
12792;SDS011;6460;42.684;23.260;2022-10-18T16:20:02;41.73;;;24.93;;
12792;SDS011;6460;42.684;23.260;2022-10-18T16:22:29;45.90;;;29.47;;
12792;SDS011;6460;42.684;23.260;2022-10-18T16:24:58;39.00;;;27.77;;
12792;SDS011;6460;42.684;23.260;2022-10-18T16:27:25;38.37;;;22.97;;
12792;SDS011;6460;42.684;23.260;2022-10-18T16:29:53;31.50;;;21.27;;
12792;SDS011;6460;42.684;23.260;2022-10-18T16:32:20;22.47;;;17.17;;
12792;SDS011;6460;42.684;23.260;2022-10-18T16:34:48;27.03;;;17.07;;
12792;SDS011;6460;42.684;23.260;2022-10-18T16:37:15;27.07;;;18.17;;
12792;SDS011;6460;42.684;23.260;2022-10-18T16:39:42;39.57;;;23.17;;
12792;SDS011;6460;42.684;23.260;2022-10-18T16:42:11;35.63;;;21.57;;
12792;SDS011;6460;42.684;23.260;2022-10-18T16:44:38;37.30;;;19.70;;
12792;SDS011;6460;42.684;23.260;2022-10-18T16:47:05;36.60;;;24.73;;
12792;SDS011;6460;42.684;23.260;2022-10-18T16:49:32;40.17;;;23.97;;
12792;SDS011;6460;42.684;23.260;2022-10-18T16:51:59;38.97;;;24.73;;
12792;SDS011;6460;42.684;23.260;2022-10-18T16:54:27;65.83;;;41.37;;
12792;SDS011;6460;42.684;23.260;2022-10-18T16:56:54;47.90;;;27.93;;
12792;SDS011;6460;42.684;23.260;2022-10-18T16:59:24;28.93;;;18.97;;
12792;SDS011;6460;42.684;23.260;2022-10-18T17:01:53;31.50;;;19.60;;
12792;SDS011;6460;42.684;23.260;2022-10-18T17:04:20;32.57;;;19.13;;
12792;SDS011;6460;42.684;23.260;2022-10-18T17:06:47;28.47;;;15.87;;
12792;SDS011;6460;42.684;23.260;2022-10-18T17:09:15;19.17;;;14.00;;
12792;SDS011;6460;42.684;23.260;2022-10-18T17:11:42;21.40;;;12.77;;
12792;SDS011;6460;42.684;23.260;2022-10-18T17:14:09;25.77;;;16.03;;
12792;SDS011;6460;42.684;23.260;2022-10-18T17:16:37;21.17;;;16.37;;
12792;SDS011;6460;42.684;23.260;2022-10-18T17:19:06;25.97;;;17.37;;
12792;SDS011;6460;42.684;23.260;2022-10-18T17:21:36;31.80;;;19.50;;
12792;SDS011;6460;42.684;23.260;2022-10-18T17:24:04;29.80;;;19.37;;
12792;SDS011;6460;42.684;23.260;2022-10-18T17:26:31;25.90;;;15.80;;
12792;SDS011;6460;42.684;23.260;2022-10-18T17:28:59;24.73;;;15.07;;
12792;SDS011;6460;42.684;23.260;2022-10-18T17:31:29;29.53;;;16.07;;
12792;SDS011;6460;42.684;23.260;2022-10-18T17:33:58;26.83;;;15.33;;
12792;SDS011;6460;42.684;23.260;2022-10-18T17:36:27;20.37;;;13.80;;
12792;SDS011;6460;42.684;23.260;2022-10-18T17:38:54;34.37;;;22.40;;
12792;SDS011;6460;42.684;23.260;2022-10-18T17:41:22;26.27;;;15.57;;
12792;SDS011;6460;42.684;23.260;2022-10-18T17:43:49;21.30;;;12.37;;
12792;SDS011;6460;42.684;23.260;2022-10-18T17:46:16;18.93;;;11.30;;
12792;SDS011;6460;42.684;23.260;2022-10-18T17:48:43;17.27;;;10.70;;
12792;SDS011;6460;42.684;23.260;2022-10-18T17:51:13;16.50;;;10.10;;
12792;SDS011;6460;42.684;23.260;2022-10-18T17:53:42;17.50;;;10.37;;
12792;SDS011;6460;42.684;23.260;2022-10-18T17:56:10;23.93;;;11.43;;
12792;SDS011;6460;42.684;23.260;2022-10-18T17:58:38;19.33;;;11.40;;
12792;SDS011;6460;42.684;23.260;2022-10-18T18:01:07;19.03;;;13.30;;
12792;SDS011;6460;42.684;23.260;2022-10-18T18:03:36;18.97;;;11.97;;
12792;SDS011;6460;42.684;23.260;2022-10-18T18:06:15;21.03;;;11.90;;
12792;SDS011;6460;42.684;23.260;2022-10-18T18:08:44;22.53;;;12.07;;
12792;SDS011;6460;42.684;23.260;2022-10-18T18:11:12;22.10;;;13.30;;
12792;SDS011;6460;42.684;23.260;2022-10-18T18:13:40;18.15;;;11.60;;
12792;SDS011;6460;42.684;23.260;2022-10-18T18:16:09;20.63;;;13.83;;
12792;SDS011;6460;42.684;23.260;2022-10-18T18:18:37;22.73;;;14.27;;
12792;SDS011;6460;42.684;23.260;2022-10-18T18:21:04;24.63;;;15.17;;
12792;SDS011;6460;42.684;23.260;2022-10-18T18:23:33;19.20;;;13.63;;
12792;SDS011;6460;42.684;23.260;2022-10-18T18:26:00;19.17;;;13.23;;
12792;SDS011;6460;42.684;23.260;2022-10-18T18:28:27;24.27;;;15.30;;
12792;SDS011;6460;42.684;23.260;2022-10-18T18:30:54;34.57;;;23.17;;
12792;SDS011;6460;42.684;23.260;2022-10-18T18:33:22;39.10;;;26.30;;
12792;SDS011;6460;42.684;23.260;2022-10-18T18:35:53;31.50;;;20.20;;
12792;SDS011;6460;42.684;23.260;2022-10-18T18:38:21;29.83;;;17.90;;
12792;SDS011;6460;42.684;23.260;2022-10-18T18:40:49;27.03;;;15.93;;
12792;SDS011;6460;42.684;23.260;2022-10-18T18:43:28;23.70;;;13.87;;
12792;SDS011;6460;42.684;23.260;2022-10-18T18:45:55;18.43;;;13.53;;
12792;SDS011;6460;42.684;23.260;2022-10-18T18:48:23;32.53;;;13.73;;
12792;SDS011;6460;42.684;23.260;2022-10-18T18:50:51;22.57;;;12.77;;
12792;SDS011;6460;42.684;23.260;2022-10-18T18:53:18;17.07;;;10.63;;
12792;SDS011;6460;42.684;23.260;2022-10-18T18:55:45;16.43;;;11.73;;
12792;SDS011;6460;42.684;23.260;2022-10-18T18:58:16;17.53;;;12.20;;
12792;SDS011;6460;42.684;23.260;2022-10-18T19:00:44;19.30;;;11.70;;
12792;SDS011;6460;42.684;23.260;2022-10-18T19:03:11;17.57;;;12.10;;